sensor_id;sensor_type;location;lat;lon;timestamp;P1;durP1;ratioP1;P2;durP2;ratioP2
10074;SDS011;5076;42.680;23.288;2022-08-11T00:01:38;3.90;;;3.60;;
10074;SDS011;5076;42.680;23.288;2022-08-11T00:04:09;4.43;;;4.03;;
10074;SDS011;5076;42.680;23.288;2022-08-11T00:06:36;4.17;;;3.87;;
10074;SDS011;5076;42.680;23.288;2022-08-11T00:09:04;5.57;;;4.30;;
10074;SDS011;5076;42.680;23.288;2022-08-11T00:11:33;4.50;;;4.10;;
10074;SDS011;5076;42.680;23.288;2022-08-11T00:14:00;4.67;;;4.27;;
10074;SDS011;5076;42.680;23.288;2022-08-11T00:16:28;4.70;;;4.30;;
10074;SDS011;5076;42.680;23.288;2022-08-11T00:18:56;6.17;;;4.47;;
10074;SDS011;5076;42.680;23.288;2022-08-11T00:21:24;4.50;;;4.10;;
10074;SDS011;5076;42.680;23.288;2022-08-11T00:23:52;4.50;;;4.10;;
10074;SDS011;5076;42.680;23.288;2022-08-11T00:26:19;3.93;;;3.63;;
10074;SDS011;5076;42.680;23.288;2022-08-11T00:28:46;4.83;;;4.23;;
10074;SDS011;5076;42.680;23.288;2022-08-11T00:31:21;4.17;;;3.87;;
10074;SDS011;5076;42.680;23.288;2022-08-11T00:33:48;4.27;;;3.93;;
10074;SDS011;5076;42.680;23.288;2022-08-11T00:36:18;3.77;;;3.47;;
10074;SDS011;5076;42.680;23.288;2022-08-11T00:38:45;4.50;;;4.10;;
10074;SDS011;5076;42.680;23.288;2022-08-11T00:41:21;4.10;;;3.80;;
10074;SDS011;5076;42.680;23.288;2022-08-11T00:44:03;4.40;;;3.53;;
10074;SDS011;5076;42.680;23.288;2022-08-11T00:46:34;5.17;;;3.67;;
10074;SDS011;5076;42.680;23.288;2022-08-11T00:49:08;3.83;;;3.43;;
10074;SDS011;5076;42.680;23.288;2022-08-11T00:51:42;4.40;;;4.00;;
10074;SDS011;5076;42.680;23.288;2022-08-11T00:54:17;4.37;;;3.60;;
10074;SDS011;5076;42.680;23.288;2022-08-11T01:00:00;3.73;;;3.43;;
10074;SDS011;5076;42.680;23.288;2022-08-11T01:02:38;4.03;;;3.73;;
10074;SDS011;5076;42.680;23.288;2022-08-11T01:05:15;4.57;;;4.17;;
10074;SDS011;5076;42.680;23.288;2022-08-11T01:08:11;4.30;;;3.93;;
10074;SDS011;5076;42.680;23.288;2022-08-11T01:13:35;4.50;;;4.10;;
10074;SDS011;5076;42.680;23.288;2022-08-11T01:16:13;4.00;;;3.70;;
10074;SDS011;5076;42.680;23.288;2022-08-11T01:18:54;4.43;;;4.03;;
10074;SDS011;5076;42.680;23.288;2022-08-11T01:24:34;4.60;;;4.10;;
10074;SDS011;5076;42.680;23.288;2022-08-11T01:27:20;3.90;;;3.60;;
10074;SDS011;5076;42.680;23.288;2022-08-11T01:35:38;4.43;;;4.03;;
10074;SDS011;5076;42.680;23.288;2022-08-11T01:38:26;4.33;;;4.03;;
10074;SDS011;5076;42.680;23.288;2022-08-11T01:41:08;4.60;;;4.20;;
10074;SDS011;5076;42.680;23.288;2022-08-11T01:43:46;6.33;;;4.30;;
10074;SDS011;5076;42.680;23.288;2022-08-11T01:46:36;4.93;;;4.53;;
10074;SDS011;5076;42.680;23.288;2022-08-11T01:49:09;5.07;;;4.67;;
10074;SDS011;5076;42.680;23.288;2022-08-11T01:51:45;5.07;;;4.57;;
10074;SDS011;5076;42.680;23.288;2022-08-11T01:54:17;8.07;;;5.60;;
10074;SDS011;5076;42.680;23.288;2022-08-11T01:56:49;5.20;;;4.70;;
10074;SDS011;5076;42.680;23.288;2022-08-11T01:59:20;6.30;;;4.47;;
10074;SDS011;5076;42.680;23.288;2022-08-11T02:04:33;5.27;;;4.77;;
10074;SDS011;5076;42.680;23.288;2022-08-11T02:07:03;5.30;;;4.80;;
10074;SDS011;5076;42.680;23.288;2022-08-11T02:09:41;4.17;;;3.87;;
10074;SDS011;5076;42.680;23.288;2022-08-11T02:12:14;4.70;;;4.30;;
10074;SDS011;5076;42.680;23.288;2022-08-11T02:14:41;4.57;;;4.17;;
10074;SDS011;5076;42.680;23.288;2022-08-11T02:17:13;4.47;;;4.03;;
10074;SDS011;5076;42.680;23.288;2022-08-11T02:19:47;4.57;;;4.27;;
10074;SDS011;5076;42.680;23.288;2022-08-11T02:22:41;5.00;;;4.13;;
10074;SDS011;5076;42.680;23.288;2022-08-11T02:25:30;5.17;;;4.77;;
10074;SDS011;5076;42.680;23.288;2022-08-11T02:28:02;4.70;;;4.30;;
10074;SDS011;5076;42.680;23.288;2022-08-11T02:30:31;6.47;;;4.73;;
10074;SDS011;5076;42.680;23.288;2022-08-11T02:33:01;6.50;;;4.47;;
10074;SDS011;5076;42.680;23.288;2022-08-11T02:35:54;5.83;;;4.47;;
10074;SDS011;5076;42.680;23.288;2022-08-11T02:38:26;4.50;;;4.10;;
10074;SDS011;5076;42.680;23.288;2022-08-11T02:40:56;5.17;;;4.67;;
10074;SDS011;5076;42.680;23.288;2022-08-11T02:43:34;5.90;;;4.47;;
10074;SDS011;5076;42.680;23.288;2022-08-11T02:46:06;4.63;;;4.23;;
10074;SDS011;5076;42.680;23.288;2022-08-11T02:48:46;6.90;;;5.10;;
10074;SDS011;5076;42.680;23.288;2022-08-11T02:51:40;5.10;;;4.70;;
10074;SDS011;5076;42.680;23.288;2022-08-11T02:54:10;5.73;;;5.10;;
10074;SDS011;5076;42.680;23.288;2022-08-11T02:56:44;5.17;;;4.73;;
10074;SDS011;5076;42.680;23.288;2022-08-11T02:59:16;7.50;;;5.80;;
10074;SDS011;5076;42.680;23.288;2022-08-11T03:02:05;8.17;;;6.00;;
10074;SDS011;5076;42.680;23.288;2022-08-11T03:04:36;6.10;;;5.50;;
10074;SDS011;5076;42.680;23.288;2022-08-11T03:07:13;5.53;;;5.03;;
10074;SDS011;5076;42.680;23.288;2022-08-11T03:09:47;5.80;;;5.20;;
10074;SDS011;5076;42.680;23.288;2022-08-11T03:12:15;7.03;;;4.77;;
10074;SDS011;5076;42.680;23.288;2022-08-11T03:15:01;4.80;;;4.40;;
10074;SDS011;5076;42.680;23.288;2022-08-11T03:17:47;4.93;;;4.53;;
10074;SDS011;5076;42.680;23.288;2022-08-11T03:20:22;5.60;;;5.00;;
10074;SDS011;5076;42.680;23.288;2022-08-11T03:22:55;6.93;;;4.87;;
10074;SDS011;5076;42.680;23.288;2022-08-11T03:25:26;5.70;;;5.10;;
10074;SDS011;5076;42.680;23.288;2022-08-11T03:28:00;5.13;;;4.50;;
10074;SDS011;5076;42.680;23.288;2022-08-11T03:30:31;5.37;;;4.87;;
10074;SDS011;5076;42.680;23.288;2022-08-11T03:33:04;5.10;;;4.60;;
10074;SDS011;5076;42.680;23.288;2022-08-11T03:35:53;8.10;;;4.63;;
10074;SDS011;5076;42.680;23.288;2022-08-11T03:38:23;5.93;;;4.43;;
10074;SDS011;5076;42.680;23.288;2022-08-11T03:41:02;5.47;;;4.97;;
10074;SDS011;5076;42.680;23.288;2022-08-11T03:43:58;5.10;;;4.53;;
10074;SDS011;5076;42.680;23.288;2022-08-11T03:46:34;5.00;;;4.60;;
10074;SDS011;5076;42.680;23.288;2022-08-11T03:49:06;5.23;;;4.80;;
10074;SDS011;5076;42.680;23.288;2022-08-11T03:51:36;5.40;;;4.90;;
10074;SDS011;5076;42.680;23.288;2022-08-11T03:54:10;4.60;;;4.20;;
10074;SDS011;5076;42.680;23.288;2022-08-11T03:56:53;6.40;;;5.07;;
10074;SDS011;5076;42.680;23.288;2022-08-11T04:02:18;5.50;;;4.90;;
10074;SDS011;5076;42.680;23.288;2022-08-11T04:10:48;6.47;;;4.80;;
10074;SDS011;5076;42.680;23.288;2022-08-11T04:13:34;6.20;;;4.70;;
10074;SDS011;5076;42.680;23.288;2022-08-11T04:16:14;8.73;;;5.17;;
10074;SDS011;5076;42.680;23.288;2022-08-11T04:21:25;7.63;;;4.70;;
10074;SDS011;5076;42.680;23.288;2022-08-11T04:24:17;4.93;;;4.30;;
10074;SDS011;5076;42.680;23.288;2022-08-11T04:27:00;6.47;;;4.70;;
10074;SDS011;5076;42.680;23.288;2022-08-11T04:29:41;5.93;;;4.37;;
10074;SDS011;5076;42.680;23.288;2022-08-11T04:32:25;4.93;;;4.47;;
10074;SDS011;5076;42.680;23.288;2022-08-11T04:35:01;7.23;;;4.90;;
10074;SDS011;5076;42.680;23.288;2022-08-11T04:37:47;5.37;;;4.87;;
10074;SDS011;5076;42.680;23.288;2022-08-11T04:40:34;5.20;;;4.70;;
10074;SDS011;5076;42.680;23.288;2022-08-11T04:46:04;6.37;;;5.27;;
10074;SDS011;5076;42.680;23.288;2022-08-11T04:48:57;8.13;;;4.80;;
10074;SDS011;5076;42.680;23.288;2022-08-11T04:54:59;6.73;;;4.70;;
10074;SDS011;5076;42.680;23.288;2022-08-11T04:57:46;4.80;;;4.40;;
10074;SDS011;5076;42.680;23.288;2022-08-11T05:00:36;5.60;;;5.10;;
10074;SDS011;5076;42.680;23.288;2022-08-11T05:06:15;7.57;;;5.50;;
10074;SDS011;5076;42.680;23.288;2022-08-11T05:09:02;6.07;;;5.47;;
10074;SDS011;5076;42.680;23.288;2022-08-11T05:11:43;5.80;;;5.30;;
10074;SDS011;5076;42.680;23.288;2022-08-11T05:17:31;7.07;;;5.03;;
10074;SDS011;5076;42.680;23.288;2022-08-11T05:20:17;6.97;;;6.37;;
10074;SDS011;5076;42.680;23.288;2022-08-11T05:23:04;6.77;;;5.40;;
10074;SDS011;5076;42.680;23.288;2022-08-11T05:25:48;6.20;;;5.50;;
10074;SDS011;5076;42.680;23.288;2022-08-11T05:28:35;9.63;;;5.73;;
10074;SDS011;5076;42.680;23.288;2022-08-11T05:31:21;7.93;;;5.90;;
10074;SDS011;5076;42.680;23.288;2022-08-11T05:34:08;6.37;;;5.20;;
10074;SDS011;5076;42.680;23.288;2022-08-11T05:36:53;6.50;;;5.80;;
10074;SDS011;5076;42.680;23.288;2022-08-11T05:39:22;6.80;;;5.13;;
10074;SDS011;5076;42.680;23.288;2022-08-11T05:42:07;5.87;;;5.27;;
10074;SDS011;5076;42.680;23.288;2022-08-11T05:44:51;6.63;;;5.53;;
10074;SDS011;5076;42.680;23.288;2022-08-11T05:47:36;6.73;;;5.27;;
10074;SDS011;5076;42.680;23.288;2022-08-11T05:50:20;7.37;;;5.30;;
10074;SDS011;5076;42.680;23.288;2022-08-11T05:53:04;6.90;;;5.77;;
10074;SDS011;5076;42.680;23.288;2022-08-11T05:55:53;7.77;;;5.70;;
10074;SDS011;5076;42.680;23.288;2022-08-11T05:58:39;7.97;;;5.77;;
10074;SDS011;5076;42.680;23.288;2022-08-11T06:01:06;6.70;;;5.37;;
10074;SDS011;5076;42.680;23.288;2022-08-11T06:03:33;5.47;;;4.97;;
10074;SDS011;5076;42.680;23.288;2022-08-11T06:06:21;5.37;;;4.83;;
10074;SDS011;5076;42.680;23.288;2022-08-11T06:08:48;6.00;;;5.00;;
10074;SDS011;5076;42.680;23.288;2022-08-11T06:11:16;5.50;;;5.00;;
10074;SDS011;5076;42.680;23.288;2022-08-11T06:13:43;5.60;;;5.10;;
10074;SDS011;5076;42.680;23.288;2022-08-11T06:16:10;5.27;;;4.77;;
10074;SDS011;5076;42.680;23.288;2022-08-11T06:18:39;4.80;;;4.37;;
10074;SDS011;5076;42.680;23.288;2022-08-11T06:21:10;5.33;;;4.50;;
10074;SDS011;5076;42.680;23.288;2022-08-11T06:23:37;5.03;;;4.63;;
10074;SDS011;5076;42.680;23.288;2022-08-11T06:26:07;6.10;;;4.60;;
10074;SDS011;5076;42.680;23.288;2022-08-11T06:28:36;5.87;;;4.80;;
10074;SDS011;5076;42.680;23.288;2022-08-11T06:31:10;5.87;;;4.57;;
10074;SDS011;5076;42.680;23.288;2022-08-11T06:33:37;4.70;;;4.30;;
10074;SDS011;5076;42.680;23.288;2022-08-11T06:36:12;4.73;;;4.33;;
10074;SDS011;5076;42.680;23.288;2022-08-11T06:38:45;5.03;;;4.63;;
10074;SDS011;5076;42.680;23.288;2022-08-11T06:41:17;4.90;;;3.97;;
10074;SDS011;5076;42.680;23.288;2022-08-11T06:44:00;5.03;;;4.07;;
10074;SDS011;5076;42.680;23.288;2022-08-11T06:46:30;4.77;;;4.27;;
10074;SDS011;5076;42.680;23.288;2022-08-11T06:48:57;4.17;;;3.77;;
10074;SDS011;5076;42.680;23.288;2022-08-11T06:51:26;4.77;;;3.67;;
10074;SDS011;5076;42.680;23.288;2022-08-11T06:53:53;4.00;;;3.70;;
10074;SDS011;5076;42.680;23.288;2022-08-11T06:56:24;6.47;;;4.30;;
10074;SDS011;5076;42.680;23.288;2022-08-11T06:59:10;5.03;;;4.53;;
10074;SDS011;5076;42.680;23.288;2022-08-11T07:01:56;4.30;;;3.80;;
10074;SDS011;5076;42.680;23.288;2022-08-11T07:04:28;3.43;;;3.13;;
10074;SDS011;5076;42.680;23.288;2022-08-11T07:06:59;5.40;;;3.73;;
10074;SDS011;5076;42.680;23.288;2022-08-11T07:15:51;4.83;;;3.90;;
10074;SDS011;5076;42.680;23.288;2022-08-11T07:21:25;3.30;;;3.10;;
10074;SDS011;5076;42.680;23.288;2022-08-11T07:24:11;4.27;;;3.63;;
10074;SDS011;5076;42.680;23.288;2022-08-11T07:26:56;4.37;;;3.50;;
10074;SDS011;5076;42.680;23.288;2022-08-11T07:29:41;3.73;;;3.43;;
10074;SDS011;5076;42.680;23.288;2022-08-11T07:32:15;3.60;;;3.30;;
10074;SDS011;5076;42.680;23.288;2022-08-11T07:34:44;3.77;;;3.43;;
10074;SDS011;5076;42.680;23.288;2022-08-11T07:37:13;3.83;;;3.47;;
10074;SDS011;5076;42.680;23.288;2022-08-11T07:39:42;3.80;;;3.33;;
10074;SDS011;5076;42.680;23.288;2022-08-11T07:42:09;7.47;;;3.50;;
10074;SDS011;5076;42.680;23.288;2022-08-11T07:44:38;3.60;;;3.30;;
10074;SDS011;5076;42.680;23.288;2022-08-11T07:47:21;4.23;;;3.47;;
10074;SDS011;5076;42.680;23.288;2022-08-11T07:50:05;4.47;;;3.77;;
10074;SDS011;5076;42.680;23.288;2022-08-11T07:52:51;4.30;;;3.10;;
10074;SDS011;5076;42.680;23.288;2022-08-11T07:55:18;3.20;;;2.90;;
10074;SDS011;5076;42.680;23.288;2022-08-11T07:57:46;2.87;;;2.63;;
10074;SDS011;5076;42.680;23.288;2022-08-11T08:00:34;3.17;;;2.97;;
10074;SDS011;5076;42.680;23.288;2022-08-11T08:03:19;4.80;;;3.00;;
10074;SDS011;5076;42.680;23.288;2022-08-11T08:06:04;4.33;;;2.87;;
10074;SDS011;5076;42.680;23.288;2022-08-11T08:08:48;3.27;;;2.73;;
10074;SDS011;5076;42.680;23.288;2022-08-11T08:11:33;3.80;;;3.50;;
10074;SDS011;5076;42.680;23.288;2022-08-11T08:14:17;3.47;;;2.83;;
10074;SDS011;5076;42.680;23.288;2022-08-11T08:17:01;5.07;;;3.37;;
10074;SDS011;5076;42.680;23.288;2022-08-11T08:19:48;3.40;;;3.10;;
10074;SDS011;5076;42.680;23.288;2022-08-11T08:22:16;3.20;;;3.00;;
10074;SDS011;5076;42.680;23.288;2022-08-11T08:24:43;3.20;;;2.73;;
10074;SDS011;5076;42.680;23.288;2022-08-11T08:27:10;4.53;;;4.00;;
10074;SDS011;5076;42.680;23.288;2022-08-11T08:29:38;3.70;;;3.30;;
10074;SDS011;5076;42.680;23.288;2022-08-11T08:32:23;2.87;;;2.67;;
10074;SDS011;5076;42.680;23.288;2022-08-11T08:34:51;3.80;;;3.03;;
10074;SDS011;5076;42.680;23.288;2022-08-11T08:37:20;3.00;;;2.80;;
10074;SDS011;5076;42.680;23.288;2022-08-11T08:39:48;4.60;;;4.20;;
10074;SDS011;5076;42.680;23.288;2022-08-11T08:42:16;3.07;;;2.77;;
10074;SDS011;5076;42.680;23.288;2022-08-11T08:44:44;3.17;;;2.87;;
10074;SDS011;5076;42.680;23.288;2022-08-11T08:47:13;3.40;;;3.07;;
10074;SDS011;5076;42.680;23.288;2022-08-11T08:49:43;3.23;;;3.03;;
10074;SDS011;5076;42.680;23.288;2022-08-11T08:52:15;3.70;;;2.80;;
10074;SDS011;5076;42.680;23.288;2022-08-11T08:54:43;3.13;;;2.83;;
10074;SDS011;5076;42.680;23.288;2022-08-11T08:57:11;4.27;;;3.00;;
10074;SDS011;5076;42.680;23.288;2022-08-11T08:59:38;2.87;;;2.57;;
10074;SDS011;5076;42.680;23.288;2022-08-11T09:02:05;3.10;;;2.80;;
10074;SDS011;5076;42.680;23.288;2022-08-11T09:04:37;3.00;;;2.80;;
10074;SDS011;5076;42.680;23.288;2022-08-11T09:07:06;2.93;;;2.73;;
10074;SDS011;5076;42.680;23.288;2022-08-11T09:09:35;3.00;;;2.77;;
10074;SDS011;5076;42.680;23.288;2022-08-11T09:12:02;2.90;;;2.70;;
10074;SDS011;5076;42.680;23.288;2022-08-11T09:14:32;3.30;;;2.80;;
10074;SDS011;5076;42.680;23.288;2022-08-11T09:17:12;5.30;;;4.17;;
10074;SDS011;5076;42.680;23.288;2022-08-11T09:19:39;5.90;;;3.40;;
10074;SDS011;5076;42.680;23.288;2022-08-11T09:22:06;2.87;;;2.67;;
10074;SDS011;5076;42.680;23.288;2022-08-11T09:24:51;4.13;;;3.80;;
10074;SDS011;5076;42.680;23.288;2022-08-11T09:27:36;4.00;;;3.30;;
10074;SDS011;5076;42.680;23.288;2022-08-11T09:30:04;3.33;;;3.03;;
10074;SDS011;5076;42.680;23.288;2022-08-11T09:32:31;5.80;;;4.40;;
10074;SDS011;5076;42.680;23.288;2022-08-11T09:34:58;6.00;;;2.50;;
10074;SDS011;5076;42.680;23.288;2022-08-11T09:37:26;2.43;;;2.23;;
10074;SDS011;5076;42.680;23.288;2022-08-11T09:40:13;3.20;;;2.70;;
10074;SDS011;5076;42.680;23.288;2022-08-11T09:42:55;2.23;;;2.03;;
10074;SDS011;5076;42.680;23.288;2022-08-11T09:45:39;2.70;;;2.50;;
10074;SDS011;5076;42.680;23.288;2022-08-11T09:48:06;2.90;;;2.60;;
10074;SDS011;5076;42.680;23.288;2022-08-11T09:50:34;3.43;;;2.83;;
10074;SDS011;5076;42.680;23.288;2022-08-11T09:53:03;2.70;;;2.50;;
10074;SDS011;5076;42.680;23.288;2022-08-11T09:55:31;3.67;;;3.00;;
10074;SDS011;5076;42.680;23.288;2022-08-11T09:57:58;3.00;;;2.70;;
10074;SDS011;5076;42.680;23.288;2022-08-11T10:00:41;3.50;;;2.80;;
10074;SDS011;5076;42.680;23.288;2022-08-11T10:03:09;2.63;;;2.43;;
10074;SDS011;5076;42.680;23.288;2022-08-11T10:05:37;2.67;;;2.47;;
10074;SDS011;5076;42.680;23.288;2022-08-11T10:08:27;3.43;;;2.80;;
10074;SDS011;5076;42.680;23.288;2022-08-11T10:10:56;3.50;;;3.20;;
10074;SDS011;5076;42.680;23.288;2022-08-11T10:13:25;3.47;;;3.20;;
10074;SDS011;5076;42.680;23.288;2022-08-11T10:15:53;3.93;;;3.40;;
10074;SDS011;5076;42.680;23.288;2022-08-11T10:18:22;4.27;;;3.40;;
10074;SDS011;5076;42.680;23.288;2022-08-11T10:21:15;3.87;;;3.13;;
10074;SDS011;5076;42.680;23.288;2022-08-11T10:23:43;3.90;;;3.33;;
10074;SDS011;5076;42.680;23.288;2022-08-11T10:26:29;4.03;;;3.27;;
10074;SDS011;5076;42.680;23.288;2022-08-11T10:29:25;3.80;;;3.40;;
10074;SDS011;5076;42.680;23.288;2022-08-11T10:32:10;3.30;;;3.00;;
10074;SDS011;5076;42.680;23.288;2022-08-11T10:34:55;3.73;;;3.43;;
10074;SDS011;5076;42.680;23.288;2022-08-11T10:37:24;3.60;;;3.30;;
10074;SDS011;5076;42.680;23.288;2022-08-11T10:39:51;7.57;;;4.87;;
10074;SDS011;5076;42.680;23.288;2022-08-11T10:42:21;3.27;;;2.97;;
10074;SDS011;5076;42.680;23.288;2022-08-11T10:45:06;3.50;;;3.10;;
10074;SDS011;5076;42.680;23.288;2022-08-11T10:47:54;3.77;;;3.27;;
10074;SDS011;5076;42.680;23.288;2022-08-11T10:50:20;3.30;;;3.00;;
10074;SDS011;5076;42.680;23.288;2022-08-11T10:53:04;2.87;;;2.67;;
10074;SDS011;5076;42.680;23.288;2022-08-11T10:55:49;2.50;;;2.30;;
10074;SDS011;5076;42.680;23.288;2022-08-11T10:58:35;3.60;;;2.70;;
10074;SDS011;5076;42.680;23.288;2022-08-11T11:01:10;3.30;;;3.00;;
10074;SDS011;5076;42.680;23.288;2022-08-11T11:03:39;3.00;;;2.80;;
10074;SDS011;5076;42.680;23.288;2022-08-11T11:06:08;4.63;;;2.63;;
10074;SDS011;5076;42.680;23.288;2022-08-11T11:08:35;5.22;;;2.78;;
10074;SDS011;5076;42.680;23.288;2022-08-11T11:11:19;3.00;;;2.70;;
10074;SDS011;5076;42.680;23.288;2022-08-11T11:13:48;2.63;;;2.43;;
10074;SDS011;5076;42.680;23.288;2022-08-11T11:16:32;3.10;;;2.80;;
10074;SDS011;5076;42.680;23.288;2022-08-11T11:19:18;2.70;;;2.50;;
10074;SDS011;5076;42.680;23.288;2022-08-11T11:21:47;2.90;;;2.70;;
10074;SDS011;5076;42.680;23.288;2022-08-11T11:24:19;3.47;;;2.70;;
10074;SDS011;5076;42.680;23.288;2022-08-11T11:26:52;2.77;;;2.47;;
10074;SDS011;5076;42.680;23.288;2022-08-11T11:29:28;2.73;;;2.30;;
10074;SDS011;5076;42.680;23.288;2022-08-11T11:32:08;3.90;;;2.73;;
10074;SDS011;5076;42.680;23.288;2022-08-11T11:34:41;3.10;;;2.80;;
10074;SDS011;5076;42.680;23.288;2022-08-11T11:37:13;2.63;;;2.42;;
10074;SDS011;5076;42.680;23.288;2022-08-11T11:39:41;2.95;;;2.75;;
10074;SDS011;5076;42.680;23.288;2022-08-11T11:42:08;3.15;;;2.78;;
10074;SDS011;5076;42.680;23.288;2022-08-11T11:44:37;2.92;;;2.72;;
10074;SDS011;5076;42.680;23.288;2022-08-11T11:47:04;4.03;;;2.58;;
10074;SDS011;5076;42.680;23.288;2022-08-11T11:49:32;3.00;;;2.80;;
10074;SDS011;5076;42.680;23.288;2022-08-11T11:52:03;4.38;;;3.28;;
10074;SDS011;5076;42.680;23.288;2022-08-11T11:54:31;4.10;;;2.70;;
10074;SDS011;5076;42.680;23.288;2022-08-11T11:57:00;3.92;;;2.97;;
10074;SDS011;5076;42.680;23.288;2022-08-11T11:59:51;3.30;;;3.00;;
10074;SDS011;5076;42.680;23.288;2022-08-11T12:02:36;3.55;;;2.80;;
10074;SDS011;5076;42.680;23.288;2022-08-11T12:05:03;3.40;;;2.80;;
10074;SDS011;5076;42.680;23.288;2022-08-11T12:07:30;4.93;;;3.15;;
10074;SDS011;5076;42.680;23.288;2022-08-11T12:10:15;2.90;;;2.70;;
10074;SDS011;5076;42.680;23.288;2022-08-11T12:12:42;3.92;;;3.30;;
10074;SDS011;5076;42.680;23.288;2022-08-11T12:15:28;4.47;;;2.70;;
10074;SDS011;5076;42.680;23.288;2022-08-11T12:17:55;3.55;;;3.22;;
10074;SDS011;5076;42.680;23.288;2022-08-11T12:20:22;2.85;;;2.60;;
10074;SDS011;5076;42.680;23.288;2022-08-11T12:22:49;2.60;;;2.28;;
10074;SDS011;5076;42.680;23.288;2022-08-11T12:28:35;4.40;;;2.90;;
10074;SDS011;5076;42.680;23.288;2022-08-11T12:31:05;3.25;;;2.95;;
10074;SDS011;5076;42.680;23.288;2022-08-11T12:33:34;2.80;;;2.60;;
10074;SDS011;5076;42.680;23.288;2022-08-11T12:36:01;2.95;;;2.75;;
10074;SDS011;5076;42.680;23.288;2022-08-11T12:38:28;2.72;;;2.53;;
10074;SDS011;5076;42.680;23.288;2022-08-11T12:40:55;2.60;;;2.40;;
10074;SDS011;5076;42.680;23.288;2022-08-11T12:43:38;3.83;;;2.63;;
10074;SDS011;5076;42.680;23.288;2022-08-11T12:46:28;2.65;;;2.20;;
10074;SDS011;5076;42.680;23.288;2022-08-11T12:48:57;2.40;;;2.10;;
10074;SDS011;5076;42.680;23.288;2022-08-11T12:51:44;2.10;;;1.90;;
10074;SDS011;5076;42.680;23.288;2022-08-11T12:54:27;3.87;;;2.37;;
10074;SDS011;5076;42.680;23.288;2022-08-11T12:56:57;2.33;;;2.20;;
10074;SDS011;5076;42.680;23.288;2022-08-11T12:59:37;3.73;;;2.30;;
10074;SDS011;5076;42.680;23.288;2022-08-11T13:02:24;4.27;;;2.50;;
10074;SDS011;5076;42.680;23.288;2022-08-11T13:05:10;2.90;;;2.30;;
10074;SDS011;5076;42.680;23.288;2022-08-11T13:07:37;2.70;;;2.50;;
10074;SDS011;5076;42.680;23.288;2022-08-11T13:10:07;2.80;;;2.60;;
10074;SDS011;5076;42.680;23.288;2022-08-11T13:12:34;2.60;;;2.20;;
10074;SDS011;5076;42.680;23.288;2022-08-11T13:15:14;4.23;;;2.77;;
10074;SDS011;5076;42.680;23.288;2022-08-11T13:17:42;3.73;;;2.50;;
10074;SDS011;5076;42.680;23.288;2022-08-11T13:20:10;2.90;;;2.17;;
10074;SDS011;5076;42.680;23.288;2022-08-11T13:22:38;2.73;;;2.53;;
10074;SDS011;5076;42.680;23.288;2022-08-11T13:25:05;2.60;;;2.20;;
10074;SDS011;5076;42.680;23.288;2022-08-11T13:27:32;3.03;;;2.40;;
10074;SDS011;5076;42.680;23.288;2022-08-11T13:30:00;4.07;;;2.40;;
10074;SDS011;5076;42.680;23.288;2022-08-11T13:32:41;3.85;;;2.45;;
10074;SDS011;5076;42.680;23.288;2022-08-11T13:35:12;2.40;;;1.90;;
10074;SDS011;5076;42.680;23.288;2022-08-11T13:37:40;1.92;;;1.83;;
10074;SDS011;5076;42.680;23.288;2022-08-11T13:40:08;2.10;;;2.00;;
10074;SDS011;5076;42.680;23.288;2022-08-11T13:42:35;4.18;;;2.40;;
10074;SDS011;5076;42.680;23.288;2022-08-11T13:45:03;2.30;;;1.92;;
10074;SDS011;5076;42.680;23.288;2022-08-11T13:47:31;3.25;;;2.17;;
10074;SDS011;5076;42.680;23.288;2022-08-11T13:49:58;2.13;;;1.95;;
10074;SDS011;5076;42.680;23.288;2022-08-11T13:52:27;4.53;;;2.17;;
10074;SDS011;5076;42.680;23.288;2022-08-11T13:54:53;4.47;;;2.10;;
10074;SDS011;5076;42.680;23.288;2022-08-11T13:57:20;3.67;;;2.85;;
10074;SDS011;5076;42.680;23.288;2022-08-11T13:59:51;2.83;;;2.28;;
10074;SDS011;5076;42.680;23.288;2022-08-11T14:02:20;3.20;;;2.40;;
10074;SDS011;5076;42.680;23.288;2022-08-11T14:04:49;3.05;;;2.00;;
10074;SDS011;5076;42.680;23.288;2022-08-11T14:07:19;3.40;;;2.10;;
10074;SDS011;5076;42.680;23.288;2022-08-11T14:09:51;2.08;;;1.90;;
10074;SDS011;5076;42.680;23.288;2022-08-11T14:12:20;1.90;;;1.67;;
10074;SDS011;5076;42.680;23.288;2022-08-11T14:15:09;6.18;;;2.20;;
10074;SDS011;5076;42.680;23.288;2022-08-11T14:17:36;3.65;;;2.00;;
10074;SDS011;5076;42.680;23.288;2022-08-11T14:20:05;3.03;;;2.10;;
10074;SDS011;5076;42.680;23.288;2022-08-11T14:22:33;2.30;;;2.10;;
10074;SDS011;5076;42.680;23.288;2022-08-11T14:25:01;2.00;;;1.85;;
10074;SDS011;5076;42.680;23.288;2022-08-11T14:27:28;2.90;;;2.28;;
10074;SDS011;5076;42.680;23.288;2022-08-11T14:29:55;4.28;;;3.20;;
10074;SDS011;5076;42.680;23.288;2022-08-11T14:32:22;2.80;;;2.08;;
10074;SDS011;5076;42.680;23.288;2022-08-11T14:34:49;4.15;;;2.42;;
10074;SDS011;5076;42.680;23.288;2022-08-11T14:37:18;5.32;;;3.08;;
10074;SDS011;5076;42.680;23.288;2022-08-11T14:39:45;4.68;;;2.60;;
10074;SDS011;5076;42.680;23.288;2022-08-11T14:42:15;2.90;;;2.60;;
10074;SDS011;5076;42.680;23.288;2022-08-11T14:45:01;2.60;;;2.40;;
10074;SDS011;5076;42.680;23.288;2022-08-11T14:47:56;2.35;;;2.15;;
10074;SDS011;5076;42.680;23.288;2022-08-11T14:50:25;2.65;;;2.45;;
10074;SDS011;5076;42.680;23.288;2022-08-11T14:52:53;2.90;;;2.63;;
10074;SDS011;5076;42.680;23.288;2022-08-11T14:55:21;5.53;;;2.50;;
10074;SDS011;5076;42.680;23.288;2022-08-11T14:58:09;4.70;;;2.55;;
10074;SDS011;5076;42.680;23.288;2022-08-11T15:00:36;2.35;;;2.17;;
10074;SDS011;5076;42.680;23.288;2022-08-11T15:03:04;2.97;;;2.60;;
10074;SDS011;5076;42.680;23.288;2022-08-11T15:05:36;2.60;;;2.13;;
10074;SDS011;5076;42.680;23.288;2022-08-11T15:08:04;3.15;;;2.67;;
10074;SDS011;5076;42.680;23.288;2022-08-11T15:10:32;5.38;;;2.60;;
10074;SDS011;5076;42.680;23.288;2022-08-11T15:12:58;3.35;;;2.30;;
10074;SDS011;5076;42.680;23.288;2022-08-11T15:15:27;2.63;;;2.42;;
10074;SDS011;5076;42.680;23.288;2022-08-11T15:18:12;2.83;;;2.50;;
10074;SDS011;5076;42.680;23.288;2022-08-11T15:20:40;2.50;;;2.30;;
10074;SDS011;5076;42.680;23.288;2022-08-11T15:23:24;4.05;;;2.53;;
10074;SDS011;5076;42.680;23.288;2022-08-11T15:26:12;2.97;;;2.78;;
10074;SDS011;5076;42.680;23.288;2022-08-11T15:28:39;3.90;;;2.38;;
10074;SDS011;5076;42.680;23.288;2022-08-11T15:31:26;2.63;;;2.40;;
10074;SDS011;5076;42.680;23.288;2022-08-11T15:34:11;2.88;;;2.50;;
10074;SDS011;5076;42.680;23.288;2022-08-11T15:36:58;3.78;;;2.70;;
10074;SDS011;5076;42.680;23.288;2022-08-11T15:39:44;3.90;;;2.80;;
10074;SDS011;5076;42.680;23.288;2022-08-11T15:42:26;4.75;;;3.15;;
10074;SDS011;5076;42.680;23.288;2022-08-11T15:45:11;2.95;;;2.38;;
10074;SDS011;5076;42.680;23.288;2022-08-11T15:48:01;3.10;;;2.25;;
10074;SDS011;5076;42.680;23.288;2022-08-11T15:50:29;2.50;;;2.30;;
10074;SDS011;5076;42.680;23.288;2022-08-11T15:52:58;2.60;;;2.40;;
10074;SDS011;5076;42.680;23.288;2022-08-11T15:55:25;5.63;;;2.60;;
10074;SDS011;5076;42.680;23.288;2022-08-11T15:57:54;3.23;;;2.40;;
10074;SDS011;5076;42.680;23.288;2022-08-11T16:00:38;3.70;;;2.33;;
10074;SDS011;5076;42.680;23.288;2022-08-11T16:03:31;2.93;;;2.20;;
10074;SDS011;5076;42.680;23.288;2022-08-11T16:06:15;5.07;;;2.50;;
10074;SDS011;5076;42.680;23.288;2022-08-11T16:08:43;3.87;;;2.13;;
10074;SDS011;5076;42.680;23.288;2022-08-11T16:11:10;2.63;;;2.10;;
10074;SDS011;5076;42.680;23.288;2022-08-11T16:13:36;3.87;;;2.33;;
10074;SDS011;5076;42.680;23.288;2022-08-11T16:16:21;2.33;;;2.20;;
10074;SDS011;5076;42.680;23.288;2022-08-11T16:18:50;3.90;;;2.60;;
10074;SDS011;5076;42.680;23.288;2022-08-11T16:21:20;3.80;;;2.90;;
10074;SDS011;5076;42.680;23.288;2022-08-11T16:23:48;2.83;;;2.60;;
10074;SDS011;5076;42.680;23.288;2022-08-11T16:26:16;2.67;;;2.40;;
10074;SDS011;5076;42.680;23.288;2022-08-11T16:28:44;5.20;;;2.70;;